sensor_id;sensor_type;location;lat;lon;timestamp;temperature;humidity
4687;DHT22;2357;47.316;-1.348;2023-07-16T00:00:48;18.30;99.90
4687;DHT22;2357;47.316;-1.348;2023-07-16T00:03:15;18.30;99.90
4687;DHT22;2357;47.316;-1.348;2023-07-16T00:05:40;18.10;99.90
4687;DHT22;2357;47.316;-1.348;2023-07-16T00:08:06;18.00;99.90
4687;DHT22;2357;47.316;-1.348;2023-07-16T00:10:36;18.10;99.90
4687;DHT22;2357;47.316;-1.348;2023-07-16T00:13:02;18.00;99.90
4687;DHT22;2357;47.316;-1.348;2023-07-16T00:15:28;18.10;99.90
4687;DHT22;2357;47.316;-1.348;2023-07-16T00:17:54;18.00;99.90
4687;DHT22;2357;47.316;-1.348;2023-07-16T00:20:20;18.10;99.90
4687;DHT22;2357;47.316;-1.348;2023-07-16T00:22:46;18.10;99.90
4687;DHT22;2357;47.316;-1.348;2023-07-16T00:25:12;18.10;99.90
4687;DHT22;2357;47.316;-1.348;2023-07-16T00:27:37;18.10;99.90
4687;DHT22;2357;47.316;-1.348;2023-07-16T00:30:03;18.00;99.90
4687;DHT22;2357;47.316;-1.348;2023-07-16T00:32:29;17.80;99.90
4687;DHT22;2357;47.316;-1.348;2023-07-16T00:34:55;17.90;99.90
4687;DHT22;2357;47.316;-1.348;2023-07-16T00:37:21;17.80;99.90
4687;DHT22;2357;47.316;-1.348;2023-07-16T00:39:46;17.80;99.90
4687;DHT22;2357;47.316;-1.348;2023-07-16T00:42:12;17.80;99.90
4687;DHT22;2357;47.316;-1.348;2023-07-16T00:44:37;17.80;99.90
4687;DHT22;2357;47.316;-1.348;2023-07-16T00:47:03;17.80;99.90
4687;DHT22;2357;47.316;-1.348;2023-07-16T00:49:29;17.80;99.90
4687;DHT22;2357;47.316;-1.348;2023-07-16T00:51:55;17.80;99.90
4687;DHT22;2357;47.316;-1.348;2023-07-16T00:54:21;17.70;99.90
4687;DHT22;2357;47.316;-1.348;2023-07-16T00:56:48;17.70;99.90
4687;DHT22;2357;47.316;-1.348;2023-07-16T00:59:13;17.70;99.90
4687;DHT22;2357;47.316;-1.348;2023-07-16T01:01:39;17.60;99.90
4687;DHT22;2357;47.316;-1.348;2023-07-16T01:04:05;17.60;99.90
4687;DHT22;2357;47.316;-1.348;2023-07-16T01:06:35;17.40;99.90
4687;DHT22;2357;47.316;-1.348;2023-07-16T01:09:08;17.50;99.90
4687;DHT22;2357;47.316;-1.348;2023-07-16T01:11:36;17.50;99.90
4687;DHT22;2357;47.316;-1.348;2023-07-16T01:14:03;17.50;99.90
4687;DHT22;2357;47.316;-1.348;2023-07-16T01:16:30;17.60;99.90
4687;DHT22;2357;47.316;-1.348;2023-07-16T01:18:57;17.50;99.90
4687;DHT22;2357;47.316;-1.348;2023-07-16T01:21:23;17.60;99.90
4687;DHT22;2357;47.316;-1.348;2023-07-16T01:26:51;17.50;99.90
4687;DHT22;2357;47.316;-1.348;2023-07-16T01:29:28;17.40;99.90
4687;DHT22;2357;47.316;-1.348;2023-07-16T01:31:56;17.40;99.90
4687;DHT22;2357;47.316;-1.348;2023-07-16T01:34:22;17.40;99.90
4687;DHT22;2357;47.316;-1.348;2023-07-16T01:36:49;17.40;99.90
4687;DHT22;2357;47.316;-1.348;2023-07-16T01:39:16;17.50;99.90
4687;DHT22;2357;47.316;-1.348;2023-07-16T01:41:42;17.50;99.90
4687;DHT22;2357;47.316;-1.348;2023-07-16T01:44:07;17.60;99.90
4687;DHT22;2357;47.316;-1.348;2023-07-16T01:46:33;17.70;99.90
4687;DHT22;2357;47.316;-1.348;2023-07-16T01:48:59;17.60;99.90
4687;DHT22;2357;47.316;-1.348;2023-07-16T01:51:24;17.60;99.90
4687;DHT22;2357;47.316;-1.348;2023-07-16T01:53:50;17.60;99.90
4687;DHT22;2357;47.316;-1.348;2023-07-16T01:56:16;17.50;99.90
4687;DHT22;2357;47.316;-1.348;2023-07-16T01:58:42;17.50;99.90
4687;DHT22;2357;47.316;-1.348;2023-07-16T02:01:08;17.30;99.90
4687;DHT22;2357;47.316;-1.348;2023-07-16T02:03:33;17.30;99.90
4687;DHT22;2357;47.316;-1.348;2023-07-16T02:05:59;17.30;99.90
4687;DHT22;2357;47.316;-1.348;2023-07-16T02:08:24;17.30;99.90
4687;DHT22;2357;47.316;-1.348;2023-07-16T02:10:50;17.20;99.90
4687;DHT22;2357;47.316;-1.348;2023-07-16T02:13:16;17.20;99.90
4687;DHT22;2357;47.316;-1.348;2023-07-16T02:15:42;17.20;99.90
4687;DHT22;2357;47.316;-1.348;2023-07-16T02:18:08;17.20;99.90
4687;DHT22;2357;47.316;-1.348;2023-07-16T02:20:33;17.10;99.90
4687;DHT22;2357;47.316;-1.348;2023-07-16T02:22:59;17.10;99.90
4687;DHT22;2357;47.316;-1.348;2023-07-16T02:25:25;17.10;99.90
4687;DHT22;2357;47.316;-1.348;2023-07-16T02:27:51;17.10;99.90
4687;DHT22;2357;47.316;-1.348;2023-07-16T02:30:17;16.90;99.90
4687;DHT22;2357;47.316;-1.348;2023-07-16T02:32:42;17.00;99.90
4687;DHT22;2357;47.316;-1.348;2023-07-16T02:35:10;16.90;99.90
4687;DHT22;2357;47.316;-1.348;2023-07-16T02:37:36;17.00;99.90
4687;DHT22;2357;47.316;-1.348;2023-07-16T02:40:02;16.90;99.90
4687;DHT22;2357;47.316;-1.348;2023-07-16T02:42:29;17.00;99.90
4687;DHT22;2357;47.316;-1.348;2023-07-16T02:44:54;16.90;99.90
4687;DHT22;2357;47.316;-1.348;2023-07-16T02:47:20;16.90;99.90
4687;DHT22;2357;47.316;-1.348;2023-07-16T02:49:46;16.90;99.90
4687;DHT22;2357;47.316;-1.348;2023-07-16T02:52:11;16.80;99.90
4687;DHT22;2357;47.316;-1.348;2023-07-16T02:54:37;16.60;99.90
4687;DHT22;2357;47.316;-1.348;2023-07-16T02:57:03;16.70;99.90
4687;DHT22;2357;47.316;-1.348;2023-07-16T02:59:29;16.70;99.90
4687;DHT22;2357;47.316;-1.348;2023-07-16T03:01:54;16.60;99.90
4687;DHT22;2357;47.316;-1.348;2023-07-16T03:04:20;16.60;99.90
4687;DHT22;2357;47.316;-1.348;2023-07-16T03:06:46;16.70;99.90
4687;DHT22;2357;47.316;-1.348;2023-07-16T03:09:11;16.70;99.90
4687;DHT22;2357;47.316;-1.348;2023-07-16T03:11:37;16.60;99.90
4687;DHT22;2357;47.316;-1.348;2023-07-16T03:14:03;16.60;99.90
4687;DHT22;2357;47.316;-1.348;2023-07-16T03:16:28;16.70;99.90
4687;DHT22;2357;47.316;-1.348;2023-07-16T03:18:54;16.70;99.90
4687;DHT22;2357;47.316;-1.348;2023-07-16T03:21:20;16.50;99.90
4687;DHT22;2357;47.316;-1.348;2023-07-16T03:23:45;16.40;99.90
4687;DHT22;2357;47.316;-1.348;2023-07-16T03:26:11;16.40;99.90
4687;DHT22;2357;47.316;-1.348;2023-07-16T03:28:37;16.40;99.90
4687;DHT22;2357;47.316;-1.348;2023-07-16T03:31:02;16.40;99.90
4687;DHT22;2357;47.316;-1.348;2023-07-16T03:33:28;16.40;99.90
4687;DHT22;2357;47.316;-1.348;2023-07-16T03:35:54;16.40;99.90
4687;DHT22;2357;47.316;-1.348;2023-07-16T03:38:19;16.40;99.90
4687;DHT22;2357;47.316;-1.348;2023-07-16T03:40:49;16.40;99.90
4687;DHT22;2357;47.316;-1.348;2023-07-16T03:43:15;16.40;99.90
4687;DHT22;2357;47.316;-1.348;2023-07-16T03:45:41;16.40;99.90
4687;DHT22;2357;47.316;-1.348;2023-07-16T03:48:07;16.40;99.90
4687;DHT22;2357;47.316;-1.348;2023-07-16T03:50:33;16.40;99.90
4687;DHT22;2357;47.316;-1.348;2023-07-16T03:52:59;16.40;99.90
4687;DHT22;2357;47.316;-1.348;2023-07-16T03:55:24;16.30;99.90
4687;DHT22;2357;47.316;-1.348;2023-07-16T03:57:51;16.30;99.90
4687;DHT22;2357;47.316;-1.348;2023-07-16T04:00:17;16.20;99.90
4687;DHT22;2357;47.316;-1.348;2023-07-16T04:02:42;16.10;99.90
4687;DHT22;2357;47.316;-1.348;2023-07-16T04:05:08;16.10;99.90
4687;DHT22;2357;47.316;-1.348;2023-07-16T04:07:34;16.20;99.90
4687;DHT22;2357;47.316;-1.348;2023-07-16T04:10:00;16.30;99.90
4687;DHT22;2357;47.316;-1.348;2023-07-16T04:12:26;16.20;99.90
4687;DHT22;2357;47.316;-1.348;2023-07-16T04:14:58;16.20;99.90
4687;DHT22;2357;47.316;-1.348;2023-07-16T04:17:24;16.10;99.90
4687;DHT22;2357;47.316;-1.348;2023-07-16T04:19:50;16.20;99.90
4687;DHT22;2357;47.316;-1.348;2023-07-16T04:22:16;16.20;99.90
4687;DHT22;2357;47.316;-1.348;2023-07-16T04:24:42;16.20;99.90
4687;DHT22;2357;47.316;-1.348;2023-07-16T04:27:07;16.20;99.90
4687;DHT22;2357;47.316;-1.348;2023-07-16T04:29:33;16.20;99.90
4687;DHT22;2357;47.316;-1.348;2023-07-16T04:31:59;16.20;99.90
4687;DHT22;2357;47.316;-1.348;2023-07-16T04:34:24;16.20;99.90
4687;DHT22;2357;47.316;-1.348;2023-07-16T04:36:50;16.20;99.90
4687;DHT22;2357;47.316;-1.348;2023-07-16T04:39:15;16.20;99.90
4687;DHT22;2357;47.316;-1.348;2023-07-16T04:41:41;16.20;99.90
4687;DHT22;2357;47.316;-1.348;2023-07-16T04:44:07;16.10;99.90
4687;DHT22;2357;47.316;-1.348;2023-07-16T04:46:32;16.00;99.90
4687;DHT22;2357;47.316;-1.348;2023-07-16T04:48:59;16.00;99.90
4687;DHT22;2357;47.316;-1.348;2023-07-16T04:51:24;16.00;99.90
4687;DHT22;2357;47.316;-1.348;2023-07-16T04:53:50;16.10;99.90
4687;DHT22;2357;47.316;-1.348;2023-07-16T04:56:16;16.10;99.90
4687;DHT22;2357;47.316;-1.348;2023-07-16T04:58:42;16.10;99.90
4687;DHT22;2357;47.316;-1.348;2023-07-16T05:01:08;16.10;99.90
4687;DHT22;2357;47.316;-1.348;2023-07-16T05:03:34;16.10;99.90
4687;DHT22;2357;47.316;-1.348;2023-07-16T05:06:00;16.10;99.90
4687;DHT22;2357;47.316;-1.348;2023-07-16T05:08:26;16.20;99.90
4687;DHT22;2357;47.316;-1.348;2023-07-16T05:10:52;16.20;99.90
4687;DHT22;2357;47.316;-1.348;2023-07-16T05:13:17;16.30;99.90
4687;DHT22;2357;47.316;-1.348;2023-07-16T05:15:46;16.50;99.90
4687;DHT22;2357;47.316;-1.348;2023-07-16T05:18:12;16.50;99.90
4687;DHT22;2357;47.316;-1.348;2023-07-16T05:20:38;16.50;99.90
4687;DHT22;2357;47.316;-1.348;2023-07-16T05:23:04;16.60;99.90
4687;DHT22;2357;47.316;-1.348;2023-07-16T05:25:29;16.50;99.90
4687;DHT22;2357;47.316;-1.348;2023-07-16T05:27:55;16.50;99.90
4687;DHT22;2357;47.316;-1.348;2023-07-16T05:30:21;16.50;99.90
4687;DHT22;2357;47.316;-1.348;2023-07-16T05:32:47;16.50;99.90
4687;DHT22;2357;47.316;-1.348;2023-07-16T05:35:12;16.50;99.90
4687;DHT22;2357;47.316;-1.348;2023-07-16T05:37:38;16.50;99.90
4687;DHT22;2357;47.316;-1.348;2023-07-16T05:40:04;16.50;99.90
4687;DHT22;2357;47.316;-1.348;2023-07-16T05:42:31;16.60;99.90
4687;DHT22;2357;47.316;-1.348;2023-07-16T05:44:56;16.70;99.90
4687;DHT22;2357;47.316;-1.348;2023-07-16T05:47:22;16.80;99.90
4687;DHT22;2357;47.316;-1.348;2023-07-16T05:49:48;16.90;99.90
4687;DHT22;2357;47.316;-1.348;2023-07-16T05:52:13;16.90;99.90
4687;DHT22;2357;47.316;-1.348;2023-07-16T05:54:39;16.90;99.90
4687;DHT22;2357;47.316;-1.348;2023-07-16T05:57:05;16.80;99.90
4687;DHT22;2357;47.316;-1.348;2023-07-16T05:59:31;16.90;99.90
4687;DHT22;2357;47.316;-1.348;2023-07-16T06:01:59;17.00;99.90
4687;DHT22;2357;47.316;-1.348;2023-07-16T06:04:25;17.00;99.90
4687;DHT22;2357;47.316;-1.348;2023-07-16T06:06:51;17.00;99.90
4687;DHT22;2357;47.316;-1.348;2023-07-16T06:09:16;17.00;99.90
4687;DHT22;2357;47.316;-1.348;2023-07-16T06:11:42;17.20;99.90
4687;DHT22;2357;47.316;-1.348;2023-07-16T06:14:08;17.30;99.90
4687;DHT22;2357;47.316;-1.348;2023-07-16T06:16:34;17.50;99.90
4687;DHT22;2357;47.316;-1.348;2023-07-16T06:18:59;17.60;99.90
4687;DHT22;2357;47.316;-1.348;2023-07-16T06:21:25;17.70;99.90
4687;DHT22;2357;47.316;-1.348;2023-07-16T06:23:50;17.70;99.90
4687;DHT22;2357;47.316;-1.348;2023-07-16T06:26:16;17.70;99.90
4687;DHT22;2357;47.316;-1.348;2023-07-16T06:28:42;17.80;99.90
4687;DHT22;2357;47.316;-1.348;2023-07-16T06:31:07;17.90;99.90
4687;DHT22;2357;47.316;-1.348;2023-07-16T06:33:33;17.90;99.90
4687;DHT22;2357;47.316;-1.348;2023-07-16T06:35:59;17.90;99.90
4687;DHT22;2357;47.316;-1.348;2023-07-16T06:38:24;17.90;99.90
4687;DHT22;2357;47.316;-1.348;2023-07-16T06:40:51;17.80;99.90
4687;DHT22;2357;47.316;-1.348;2023-07-16T06:43:17;17.90;99.90
4687;DHT22;2357;47.316;-1.348;2023-07-16T06:45:43;17.90;99.90
4687;DHT22;2357;47.316;-1.348;2023-07-16T06:48:09;17.90;99.90
4687;DHT22;2357;47.316;-1.348;2023-07-16T06:50:34;18.00;99.90
4687;DHT22;2357;47.316;-1.348;2023-07-16T06:53:00;18.10;99.90
4687;DHT22;2357;47.316;-1.348;2023-07-16T06:55:26;18.00;99.90
4687;DHT22;2357;47.316;-1.348;2023-07-16T06:57:52;18.00;99.90
4687;DHT22;2357;47.316;-1.348;2023-07-16T07:00:18;18.00;99.90
4687;DHT22;2357;47.316;-1.348;2023-07-16T07:02:44;18.10;99.90
4687;DHT22;2357;47.316;-1.348;2023-07-16T07:05:09;18.10;99.90
4687;DHT22;2357;47.316;-1.348;2023-07-16T07:07:35;18.20;99.90
4687;DHT22;2357;47.316;-1.348;2023-07-16T07:10:01;18.10;99.90
4687;DHT22;2357;47.316;-1.348;2023-07-16T07:12:27;18.00;99.90
4687;DHT22;2357;47.316;-1.348;2023-07-16T07:14:52;18.00;99.90
4687;DHT22;2357;47.316;-1.348;2023-07-16T07:17:18;18.00;99.90
4687;DHT22;2357;47.316;-1.348;2023-07-16T07:19:44;18.10;99.90
4687;DHT22;2357;47.316;-1.348;2023-07-16T07:22:09;18.20;99.90
4687;DHT22;2357;47.316;-1.348;2023-07-16T07:24:35;18.30;99.90
4687;DHT22;2357;47.316;-1.348;2023-07-16T07:27:01;18.50;99.90
4687;DHT22;2357;47.316;-1.348;2023-07-16T07:29:27;18.60;99.90
4687;DHT22;2357;47.316;-1.348;2023-07-16T07:31:53;18.70;99.90
4687;DHT22;2357;47.316;-1.348;2023-07-16T07:34:19;18.80;99.90
4687;DHT22;2357;47.316;-1.348;2023-07-16T07:36:44;19.00;99.90
4687;DHT22;2357;47.316;-1.348;2023-07-16T07:39:10;19.00;99.90
4687;DHT22;2357;47.316;-1.348;2023-07-16T07:41:36;19.00;99.90
4687;DHT22;2357;47.316;-1.348;2023-07-16T07:44:02;19.10;99.90
4687;DHT22;2357;47.316;-1.348;2023-07-16T07:46:27;19.00;99.90
4687;DHT22;2357;47.316;-1.348;2023-07-16T07:48:53;19.20;99.90
4687;DHT22;2357;47.316;-1.348;2023-07-16T07:51:19;19.20;99.90
4687;DHT22;2357;47.316;-1.348;2023-07-16T07:53:45;19.20;99.90
4687;DHT22;2357;47.316;-1.348;2023-07-16T07:56:11;19.30;99.90
4687;DHT22;2357;47.316;-1.348;2023-07-16T07:58:37;19.50;99.90
4687;DHT22;2357;47.316;-1.348;2023-07-16T08:01:08;19.50;99.90
4687;DHT22;2357;47.316;-1.348;2023-07-16T08:03:34;19.60;99.90
4687;DHT22;2357;47.316;-1.348;2023-07-16T08:06:00;19.60;99.90
4687;DHT22;2357;47.316;-1.348;2023-07-16T08:08:26;19.70;99.90
4687;DHT22;2357;47.316;-1.348;2023-07-16T08:10:53;19.70;99.90
4687;DHT22;2357;47.316;-1.348;2023-07-16T08:13:18;19.50;99.90
4687;DHT22;2357;47.316;-1.348;2023-07-16T08:15:44;19.40;99.90
4687;DHT22;2357;47.316;-1.348;2023-07-16T08:18:10;19.40;99.90
4687;DHT22;2357;47.316;-1.348;2023-07-16T08:20:36;19.40;99.90
4687;DHT22;2357;47.316;-1.348;2023-07-16T08:23:02;19.70;99.90
4687;DHT22;2357;47.316;-1.348;2023-07-16T08:25:28;19.90;99.90
4687;DHT22;2357;47.316;-1.348;2023-07-16T08:27:54;20.00;99.90
4687;DHT22;2357;47.316;-1.348;2023-07-16T08:30:19;20.20;99.90
4687;DHT22;2357;47.316;-1.348;2023-07-16T08:32:45;20.50;99.90
4687;DHT22;2357;47.316;-1.348;2023-07-16T08:35:11;20.50;99.90
4687;DHT22;2357;47.316;-1.348;2023-07-16T08:37:46;20.30;99.90
4687;DHT22;2357;47.316;-1.348;2023-07-16T08:40:12;20.20;99.90
4687;DHT22;2357;47.316;-1.348;2023-07-16T08:42:39;19.90;99.90
4687;DHT22;2357;47.316;-1.348;2023-07-16T08:45:10;19.80;99.90
4687;DHT22;2357;47.316;-1.348;2023-07-16T08:47:36;19.70;99.90
4687;DHT22;2357;47.316;-1.348;2023-07-16T08:50:02;20.00;99.90
4687;DHT22;2357;47.316;-1.348;2023-07-16T08:52:29;20.30;99.90
4687;DHT22;2357;47.316;-1.348;2023-07-16T08:54:55;20.40;99.90
4687;DHT22;2357;47.316;-1.348;2023-07-16T08:57:21;20.40;99.90
4687;DHT22;2357;47.316;-1.348;2023-07-16T08:59:51;20.70;99.90
4687;DHT22;2357;47.316;-1.348;2023-07-16T09:02:20;20.80;99.90
4687;DHT22;2357;47.316;-1.348;2023-07-16T09:04:49;20.80;99.90
4687;DHT22;2357;47.316;-1.348;2023-07-16T09:07:16;20.90;99.90
4687;DHT22;2357;47.316;-1.348;2023-07-16T09:09:42;21.10;99.90
4687;DHT22;2357;47.316;-1.348;2023-07-16T09:12:12;21.20;99.90
4687;DHT22;2357;47.316;-1.348;2023-07-16T09:14:37;21.20;99.90
4687;DHT22;2357;47.316;-1.348;2023-07-16T09:17:03;21.20;99.90
4687;DHT22;2357;47.316;-1.348;2023-07-16T09:19:32;21.50;99.90
4687;DHT22;2357;47.316;-1.348;2023-07-16T09:21:58;21.60;99.90
4687;DHT22;2357;47.316;-1.348;2023-07-16T09:24:23;21.70;99.90
4687;DHT22;2357;47.316;-1.348;2023-07-16T09:26:50;21.60;99.90
4687;DHT22;2357;47.316;-1.348;2023-07-16T09:29:17;21.70;99.90
4687;DHT22;2357;47.316;-1.348;2023-07-16T09:31:57;21.70;99.90
4687;DHT22;2357;47.316;-1.348;2023-07-16T09:34:23;21.70;99.90
4687;DHT22;2357;47.316;-1.348;2023-07-16T09:36:49;21.90;99.90
4687;DHT22;2357;47.316;-1.348;2023-07-16T09:39:18;21.70;99.90
4687;DHT22;2357;47.316;-1.348;2023-07-16T09:41:48;21.70;99.90
4687;DHT22;2357;47.316;-1.348;2023-07-16T09:44:14;21.50;99.90
4687;DHT22;2357;47.316;-1.348;2023-07-16T09:46:40;21.20;99.90
4687;DHT22;2357;47.316;-1.348;2023-07-16T09:49:07;21.00;99.90
4687;DHT22;2357;47.316;-1.348;2023-07-16T09:51:38;20.60;99.90
4687;DHT22;2357;47.316;-1.348;2023-07-16T09:54:04;20.40;99.90
4687;DHT22;2357;47.316;-1.348;2023-07-16T09:56:36;20.20;99.90
4687;DHT22;2357;47.316;-1.348;2023-07-16T09:59:07;19.70;99.90
4687;DHT22;2357;47.316;-1.348;2023-07-16T10:01:37;19.70;99.90
4687;DHT22;2357;47.316;-1.348;2023-07-16T10:04:12;19.50;99.90
4687;DHT22;2357;47.316;-1.348;2023-07-16T10:06:52;19.60;99.90
4687;DHT22;2357;47.316;-1.348;2023-07-16T10:09:50;19.70;99.90
4687;DHT22;2357;47.316;-1.348;2023-07-16T10:12:18;19.90;99.90
4687;DHT22;2357;47.316;-1.348;2023-07-16T10:14:46;20.00;99.90
4687;DHT22;2357;47.316;-1.348;2023-07-16T10:17:13;20.20;99.90
4687;DHT22;2357;47.316;-1.348;2023-07-16T10:19:50;20.40;99.90
4687;DHT22;2357;47.316;-1.348;2023-07-16T10:22:17;20.60;99.90
4687;DHT22;2357;47.316;-1.348;2023-07-16T10:24:42;21.10;99.90
4687;DHT22;2357;47.316;-1.348;2023-07-16T10:27:09;21.30;99.90
4687;DHT22;2357;47.316;-1.348;2023-07-16T10:29:35;21.20;99.90
4687;DHT22;2357;47.316;-1.348;2023-07-16T10:32:02;21.50;99.90
4687;DHT22;2357;47.316;-1.348;2023-07-16T10:34:28;21.50;99.90
4687;DHT22;2357;47.316;-1.348;2023-07-16T10:36:53;21.70;99.90
4687;DHT22;2357;47.316;-1.348;2023-07-16T10:39:19;21.90;99.90
4687;DHT22;2357;47.316;-1.348;2023-07-16T10:41:44;22.00;99.90
4687;DHT22;2357;47.316;-1.348;2023-07-16T10:44:15;22.20;99.90
4687;DHT22;2357;47.316;-1.348;2023-07-16T10:46:44;22.50;99.90
4687;DHT22;2357;47.316;-1.348;2023-07-16T10:49:09;22.20;99.90
4687;DHT22;2357;47.316;-1.348;2023-07-16T10:51:35;22.40;99.90
4687;DHT22;2357;47.316;-1.348;2023-07-16T10:54:01;22.60;99.90
4687;DHT22;2357;47.316;-1.348;2023-07-16T10:56:35;22.70;99.90
4687;DHT22;2357;47.316;-1.348;2023-07-16T10:59:01;22.80;99.90
4687;DHT22;2357;47.316;-1.348;2023-07-16T11:01:29;22.90;99.90
4687;DHT22;2357;47.316;-1.348;2023-07-16T11:04:00;22.90;99.90
4687;DHT22;2357;47.316;-1.348;2023-07-16T11:06:26;22.90;99.90
4687;DHT22;2357;47.316;-1.348;2023-07-16T11:08:52;22.80;99.90
4687;DHT22;2357;47.316;-1.348;2023-07-16T11:11:28;22.80;99.90
4687;DHT22;2357;47.316;-1.348;2023-07-16T11:13:54;22.80;99.90
4687;DHT22;2357;47.316;-1.348;2023-07-16T11:16:20;22.90;99.90
4687;DHT22;2357;47.316;-1.348;2023-07-16T11:18:45;22.90;99.90
4687;DHT22;2357;47.316;-1.348;2023-07-16T11:21:12;22.70;99.90
4687;DHT22;2357;47.316;-1.348;2023-07-16T11:23:38;22.80;99.90
4687;DHT22;2357;47.316;-1.348;2023-07-16T11:26:04;22.60;99.90
4687;DHT22;2357;47.316;-1.348;2023-07-16T11:28:37;22.50;99.90
4687;DHT22;2357;47.316;-1.348;2023-07-16T11:31:38;22.70;99.90
4687;DHT22;2357;47.316;-1.348;2023-07-16T11:34:03;23.10;99.90
4687;DHT22;2357;47.316;-1.348;2023-07-16T11:36:29;23.20;99.90
4687;DHT22;2357;47.316;-1.348;2023-07-16T11:38:54;23.10;99.90
4687;DHT22;2357;47.316;-1.348;2023-07-16T11:41:21;23.40;99.90
4687;DHT22;2357;47.316;-1.348;2023-07-16T11:43:47;23.60;99.90
4687;DHT22;2357;47.316;-1.348;2023-07-16T11:46:16;23.60;99.90
4687;DHT22;2357;47.316;-1.348;2023-07-16T11:48:42;23.60;99.90
4687;DHT22;2357;47.316;-1.348;2023-07-16T11:51:08;23.90;99.90
4687;DHT22;2357;47.316;-1.348;2023-07-16T11:53:34;24.10;99.90
4687;DHT22;2357;47.316;-1.348;2023-07-16T11:55:59;24.40;99.90
4687;DHT22;2357;47.316;-1.348;2023-07-16T11:58:25;24.70;99.90
4687;DHT22;2357;47.316;-1.348;2023-07-16T12:00:50;24.80;99.90
4687;DHT22;2357;47.316;-1.348;2023-07-16T12:03:17;24.70;99.90
4687;DHT22;2357;47.316;-1.348;2023-07-16T12:05:43;24.70;99.90
4687;DHT22;2357;47.316;-1.348;2023-07-16T12:08:08;25.10;99.90
4687;DHT22;2357;47.316;-1.348;2023-07-16T12:10:42;25.10;99.90
4687;DHT22;2357;47.316;-1.348;2023-07-16T12:13:07;25.10;99.90
4687;DHT22;2357;47.316;-1.348;2023-07-16T12:15:33;24.00;99.90
4687;DHT22;2357;47.316;-1.348;2023-07-16T12:17:59;24.10;99.90
4687;DHT22;2357;47.316;-1.348;2023-07-16T12:20:25;24.00;99.90
4687;DHT22;2357;47.316;-1.348;2023-07-16T12:22:51;23.50;99.90
4687;DHT22;2357;47.316;-1.348;2023-07-16T12:25:18;23.20;99.90
4687;DHT22;2357;47.316;-1.348;2023-07-16T12:27:45;23.30;99.90
4687;DHT22;2357;47.316;-1.348;2023-07-16T12:30:10;23.70;99.90
4687;DHT22;2357;47.316;-1.348;2023-07-16T12:32:36;23.80;99.90
4687;DHT22;2357;47.316;-1.348;2023-07-16T12:35:02;24.20;99.90
4687;DHT22;2357;47.316;-1.348;2023-07-16T12:37:29;23.60;99.90
4687;DHT22;2357;47.316;-1.348;2023-07-16T12:39:55;23.30;99.90
4687;DHT22;2357;47.316;-1.348;2023-07-16T12:42:21;23.20;99.90
4687;DHT22;2357;47.316;-1.348;2023-07-16T12:44:46;23.10;99.90
4687;DHT22;2357;47.316;-1.348;2023-07-16T12:47:12;23.20;99.90
4687;DHT22;2357;47.316;-1.348;2023-07-16T12:49:38;23.30;99.90
4687;DHT22;2357;47.316;-1.348;2023-07-16T12:52:03;23.30;99.90
4687;DHT22;2357;47.316;-1.348;2023-07-16T12:54:29;23.20;99.90
4687;DHT22;2357;47.316;-1.348;2023-07-16T12:56:55;23.20;99.90
4687;DHT22;2357;47.316;-1.348;2023-07-16T12:59:20;23.80;99.90
4687;DHT22;2357;47.316;-1.348;2023-07-16T13:01:46;24.20;99.90
4687;DHT22;2357;47.316;-1.348;2023-07-16T13:04:12;24.20;99.90
4687;DHT22;2357;47.316;-1.348;2023-07-16T13:06:37;24.10;99.90
4687;DHT22;2357;47.316;-1.348;2023-07-16T13:09:03;24.20;99.90
4687;DHT22;2357;47.316;-1.348;2023-07-16T13:11:30;24.80;99.90
4687;DHT22;2357;47.316;-1.348;2023-07-16T13:13:56;25.10;99.90
4687;DHT22;2357;47.316;-1.348;2023-07-16T13:16:22;25.00;99.90
4687;DHT22;2357;47.316;-1.348;2023-07-16T13:18:47;25.60;99.90
4687;DHT22;2357;47.316;-1.348;2023-07-16T13:21:13;25.60;99.90
4687;DHT22;2357;47.316;-1.348;2023-07-16T13:23:38;25.70;99.90
4687;DHT22;2357;47.316;-1.348;2023-07-16T13:26:04;25.40;99.90
4687;DHT22;2357;47.316;-1.348;2023-07-16T13:28:30;25.50;99.90
4687;DHT22;2357;47.316;-1.348;2023-07-16T13:30:55;25.60;99.90
4687;DHT22;2357;47.316;-1.348;2023-07-16T13:33:21;25.50;99.90
4687;DHT22;2357;47.316;-1.348;2023-07-16T13:35:48;25.70;99.90
4687;DHT22;2357;47.316;-1.348;2023-07-16T13:38:14;25.60;99.90
4687;DHT22;2357;47.316;-1.348;2023-07-16T13:40:40;25.80;99.90
4687;DHT22;2357;47.316;-1.348;2023-07-16T13:43:05;25.40;99.90
4687;DHT22;2357;47.316;-1.348;2023-07-16T13:45:31;25.40;99.90
4687;DHT22;2357;47.316;-1.348;2023-07-16T13:47:58;25.00;99.90
4687;DHT22;2357;47.316;-1.348;2023-07-16T13:50:24;25.10;99.90
4687;DHT22;2357;47.316;-1.348;2023-07-16T13:52:49;24.70;99.90
4687;DHT22;2357;47.316;-1.348;2023-07-16T13:55:15;24.80;99.90
4687;DHT22;2357;47.316;-1.348;2023-07-16T13:57:41;25.00;99.90
4687;DHT22;2357;47.316;-1.348;2023-07-16T14:00:08;25.60;99.90
4687;DHT22;2357;47.316;-1.348;2023-07-16T14:02:36;26.10;99.90
4687;DHT22;2357;47.316;-1.348;2023-07-16T14:05:01;26.40;99.90
4687;DHT22;2357;47.316;-1.348;2023-07-16T14:07:27;26.00;99.90
4687;DHT22;2357;47.316;-1.348;2023-07-16T14:09:53;25.70;99.90
4687;DHT22;2357;47.316;-1.348;2023-07-16T14:12:19;25.40;99.90
4687;DHT22;2357;47.316;-1.348;2023-07-16T14:14:45;25.00;99.90
4687;DHT22;2357;47.316;-1.348;2023-07-16T14:17:10;25.40;99.90
4687;DHT22;2357;47.316;-1.348;2023-07-16T14:19:36;26.00;99.90
4687;DHT22;2357;47.316;-1.348;2023-07-16T14:22:02;25.80;99.90
4687;DHT22;2357;47.316;-1.348;2023-07-16T14:24:27;25.10;99.90
4687;DHT22;2357;47.316;-1.348;2023-07-16T14:26:53;24.90;99.90
4687;DHT22;2357;47.316;-1.348;2023-07-16T14:29:18;24.50;99.90
4687;DHT22;2357;47.316;-1.348;2023-07-16T14:31:44;24.30;99.90
4687;DHT22;2357;47.316;-1.348;2023-07-16T14:34:10;24.00;99.90
4687;DHT22;2357;47.316;-1.348;2023-07-16T14:36:35;23.90;99.90
4687;DHT22;2357;47.316;-1.348;2023-07-16T14:39:01;23.90;99.90
4687;DHT22;2357;47.316;-1.348;2023-07-16T14:41:26;23.90;99.90
4687;DHT22;2357;47.316;-1.348;2023-07-16T14:43:52;23.70;99.90
4687;DHT22;2357;47.316;-1.348;2023-07-16T14:46:18;23.90;99.90
4687;DHT22;2357;47.316;-1.348;2023-07-16T14:48:44;24.00;99.90
4687;DHT22;2357;47.316;-1.348;2023-07-16T14:51:10;24.30;99.90
4687;DHT22;2357;47.316;-1.348;2023-07-16T14:53:37;24.30;99.90
4687;DHT22;2357;47.316;-1.348;2023-07-16T14:56:03;24.20;99.90
4687;DHT22;2357;47.316;-1.348;2023-07-16T14:58:29;24.10;99.90
4687;DHT22;2357;47.316;-1.348;2023-07-16T15:00:55;23.90;99.90
4687;DHT22;2357;47.316;-1.348;2023-07-16T15:03:24;23.70;99.90
4687;DHT22;2357;47.316;-1.348;2023-07-16T15:05:49;23.50;99.90
4687;DHT22;2357;47.316;-1.348;2023-07-16T15:08:20;23.40;99.90
4687;DHT22;2357;47.316;-1.348;2023-07-16T15:10:46;23.30;99.90
4687;DHT22;2357;47.316;-1.348;2023-07-16T15:13:12;23.50;99.90
4687;DHT22;2357;47.316;-1.348;2023-07-16T15:15:38;23.50;99.90
4687;DHT22;2357;47.316;-1.348;2023-07-16T15:18:03;23.60;99.90
4687;DHT22;2357;47.316;-1.348;2023-07-16T15:20:29;23.60;99.90
4687;DHT22;2357;47.316;-1.348;2023-07-16T15:22:55;23.70;99.90
4687;DHT22;2357;47.316;-1.348;2023-07-16T15:25:20;23.90;99.90
4687;DHT22;2357;47.316;-1.348;2023-07-16T15:27:46;23.70;99.90
4687;DHT22;2357;47.316;-1.348;2023-07-16T15:30:12;23.80;99.90
4687;DHT22;2357;47.316;-1.348;2023-07-16T15:32:38;24.00;99.90
4687;DHT22;2357;47.316;-1.348;2023-07-16T15:35:04;24.50;99.90
4687;DHT22;2357;47.316;-1.348;2023-07-16T15:37:30;24.40;99.90
4687;DHT22;2357;47.316;-1.348;2023-07-16T15:39:55;24.10;99.90
4687;DHT22;2357;47.316;-1.348;2023-07-16T15:42:24;23.70;99.90